Concordia, Argentina
Current Conditions -  °F | °C
As of 6:00 PM on Saturday 20 Dec 2014 (Local Time) from SUSO Reporting Station
Thunderstorm Thunderstorm  
Wind Chill: 66°   Ceiling: Unl
Heat Index: 66°   Visibility: 6mi
Dew Point: 64°   Wind: 9mph
Humidity: 94%   Direction: 50°NE
Pressure: 29.47"   Gusts: NA
Location:  31.39°S, 58.03°W
Report Text: SUSO 202100Z 05008KT 9999 TSRA SCT017 FEW040CB SCT067 19/18 Q0998
Loading
Personal Weather Stations






























Interactive Weather Map New forecast layout! Learn more

10-Day Weather Forecast

Advertisements
Track Severe Weather on mobile